Time;durP1;ratioP1;P1;durP2;ratioP2;P2;SDS_P1;SDS_P2;PMS_P1;PMS_P2;Temp;Humidity;BMP_temperature;BMP_pressure;BME280_temperature;BME280_humidity;BME280_pressure;Samples;Min_cycle;Max_cycle;Signal;HPM_P1;HPM_P2
2022/11/27 00:00:39;;;;;;;17.37;9.37;;;;;;;;;;5078205;28;20442;-71
2022/11/27 00:03:05;;;;;;;19.70;9.23;;;;;;;;;;5062059;28;20087;-71
2022/11/27 00:05:31;;;;;;;14.17;8.17;;;;;;;;;;5061763;28;20039;-71
2022/11/27 00:07:57;;;;;;;18.40;8.73;;;;;;;;;;5061627;28;20105;-71
2022/11/27 00:10:22;;;;;;;17.97;9.73;;;;;;;;;;5078266;28;20206;-71
2022/11/27 00:12:48;;;;;;;17.20;8.30;;;;;;;;;;5061370;28;20031;-71
2022/11/27 00:15:14;;;;;;;15.27;8.37;;;;;;;;;;5077976;28;20054;-72
2022/11/27 00:17:40;;;;;;;19.33;10.03;;;;;;;;;;5061473;28;20469;-71
2022/11/27 00:20:06;;;;;;;21.57;10.70;;;;;;;;;;5061364;28;20035;-68
2022/11/27 00:22:31;;;;;;;18.27;9.73;;;;;;;;;;5075565;28;20043;-72
2022/11/27 00:24:57;;;;;;;19.03;9.73;;;;;;;;;;5058680;28;20035;-73
2022/11/27 00:27:23;;;;;;;17.47;9.40;;;;;;;;;;5075596;28;20130;-72
2022/11/27 00:29:49;;;;;;;18.50;8.83;;;;;;;;;;5058999;28;20681;-71
2022/11/27 00:32:14;;;;;;;17.97;9.33;;;;;;;;;;5092503;28;20047;-71
2022/11/27 00:34:40;;;;;;;15.37;8.50;;;;;;;;;;5059550;28;20042;-70
2022/11/27 00:37:06;;;;;;;15.67;8.67;;;;;;;;;;5060494;28;20054;-74
2022/11/27 00:39:32;;;;;;;20.23;9.27;;;;;;;;;;5060125;28;20035;-70
2022/11/27 00:41:58;;;;;;;21.00;9.57;;;;;;;;;;5059641;28;20035;-71
2022/11/27 00:44:23;;;;;;;18.23;9.57;;;;;;;;;;5059900;28;20383;-72
2022/11/27 00:46:49;;;;;;;16.90;9.40;;;;;;;;;;5059779;28;20061;-72
2022/11/27 00:49:14;;;;;;;15.30;8.53;;;;;;;;;;5059805;28;20611;-72
2022/11/27 00:51:40;;;;;;;23.77;10.90;;;;;;;;;;5059730;28;20032;-72
2022/11/27 00:54:06;;;;;;;21.23;9.90;;;;;;;;;;5077256;28;20036;-73
2022/11/27 00:56:33;;;;;;;15.30;8.17;;;;;;;;;;5112362;28;20054;-73
2022/11/27 01:01:14;;;;;;;19.97;8.50;;;;;;;;;;5130470;27;20479;-72
2022/11/27 01:03:40;;;;;;;17.33;9.17;;;;;;;;;;5057306;28;20036;-73
2022/11/27 01:06:06;;;;;;;20.80;9.93;;;;;;;;;;5057605;28;20036;-72
2022/11/27 01:08:32;;;;;;;18.23;9.40;;;;;;;;;;5057522;28;20466;-72
2022/11/27 01:10:58;;;;;;;22.80;9.87;;;;;;;;;;5073621;28;20473;-72
2022/11/27 01:13:24;;;;;;;24.70;9.50;;;;;;;;;;5072577;28;20064;-71
2022/11/27 01:16:00;;;;;;;25.47;11.23;;;;;;;;;;5090787;28;20036;-70
2022/11/27 01:18:26;;;;;;;18.07;10.07;;;;;;;;;;5057278;28;20027;-71
2022/11/27 01:20:52;;;;;;;17.83;9.43;;;;;;;;;;5051568;28;20055;-71
2022/11/27 01:23:18;;;;;;;18.83;9.80;;;;;;;;;;5037066;28;20068;-71
2022/11/27 01:25:44;;;;;;;16.40;8.77;;;;;;;;;;5070297;28;20033;-70
2022/11/27 01:28:10;;;;;;;17.23;9.57;;;;;;;;;;5036885;28;20035;-71
2022/11/27 01:30:38;;;;;;;16.67;9.20;;;;;;;;;;5054141;28;20110;-71
2022/11/27 01:33:04;;;;;;;16.27;9.10;;;;;;;;;;5053877;28;20038;-71
2022/11/27 01:35:30;;;;;;;19.80;9.30;;;;;;;;;;5036949;28;20101;-71
2022/11/27 01:37:55;;;;;;;18.77;9.30;;;;;;;;;;5036811;28;20028;-71
2022/11/27 01:40:21;;;;;;;16.27;9.03;;;;;;;;;;5036738;28;20054;-71
2022/11/27 01:42:47;;;;;;;18.63;8.83;;;;;;;;;;5036739;28;20064;-71
2022/11/27 01:45:14;;;;;;;16.90;8.73;;;;;;;;;;5036953;28;20127;-71
2022/11/27 01:47:51;;;;;;;22.27;9.90;;;;;;;;;;5053100;28;20114;-73
2022/11/27 01:50:23;;;;;;;18.37;9.57;;;;;;;;;;5036666;28;20039;-73
2022/11/27 01:52:52;;;;;;;18.73;9.50;;;;;;;;;;5036587;28;20028;-73
2022/11/27 01:55:23;;;;;;;21.70;9.93;;;;;;;;;;5036492;28;20371;-72
2022/11/27 01:57:52;;;;;;;17.07;8.93;;;;;;;;;;5069506;28;20090;-71
2022/11/27 02:00:18;;;;;;;15.80;8.93;;;;;;;;;;5036183;28;20056;-72
2022/11/27 02:02:44;;;;;;;18.97;9.60;;;;;;;;;;5052849;28;20145;-73
2022/11/27 02:05:12;;;;;;;21.07;9.43;;;;;;;;;;5036445;28;20516;-73
2022/11/27 02:07:37;;;;;;;17.50;9.67;;;;;;;;;;5036373;28;20093;-73
2022/11/27 02:10:04;;;;;;;19.80;9.73;;;;;;;;;;5069542;28;20044;-74
2022/11/27 02:12:53;;;;;;;20.00;9.43;;;;;;;;;;5056438;28;20037;-72
2022/11/27 02:15:21;;;;;;;21.17;9.40;;;;;;;;;;5017534;28;20459;-73
2022/11/27 02:17:50;;;;;;;21.63;9.60;;;;;;;;;;5022900;28;20035;-74
2022/11/27 02:20:22;;;;;;;22.73;10.93;;;;;;;;;;5022670;28;20075;-74
2022/11/27 02:23:16;;;;;;;26.03;11.10;;;;;;;;;;5039234;28;20043;-71
2022/11/27 02:25:48;;;;;;;21.93;10.17;;;;;;;;;;4969742;28;20050;-73
2022/11/27 02:28:20;;;;;;;20.00;8.97;;;;;;;;;;5039262;28;20075;-73
2022/11/27 02:30:50;;;;;;;21.43;10.93;;;;;;;;;;5022866;28;20036;-72
2022/11/27 02:33:19;;;;;;;21.15;10.25;;;;;;;;;;5039135;28;20131;-72
2022/11/27 02:36:21;;;;;;;20.90;9.77;;;;;;;;;;5055641;28;20123;-72
2022/11/27 02:38:50;;;;;;;19.00;9.52;;;;;;;;;;4995470;28;20046;-72
2022/11/27 02:41:36;;;;;;;25.40;9.97;;;;;;;;;;5028074;28;20395;-72
2022/11/27 02:44:02;;;;;;;25.63;10.40;;;;;;;;;;5022308;28;20043;-74
2022/11/27 02:46:29;;;;;;;25.80;11.03;;;;;;;;;;5055491;28;20044;-73
2022/11/27 02:48:57;;;;;;;23.80;12.50;;;;;;;;;;5022429;28;20360;-73
2022/11/27 02:51:36;;;;;;;27.30;11.97;;;;;;;;;;5022459;28;20032;-74
2022/11/27 02:54:04;;;;;;;22.67;11.20;;;;;;;;;;5039043;28;20071;-74
2022/11/27 02:56:30;;;;;;;24.97;12.27;;;;;;;;;;5038698;28;20047;-74
2022/11/27 02:58:58;;;;;;;24.00;11.67;;;;;;;;;;5038137;28;20048;-74
2022/11/27 03:01:26;;;;;;;29.63;12.30;;;;;;;;;;5038411;28;20056;-72
2022/11/27 03:03:54;;;;;;;25.73;12.30;;;;;;;;;;5021901;28;20080;-74
2022/11/27 03:06:26;;;;;;;22.97;10.60;;;;;;;;;;5038631;28;20562;-73
2022/11/27 03:09:03;;;;;;;26.83;12.20;;;;;;;;;;5038597;28;20645;-73
2022/11/27 03:11:29;;;;;;;29.90;13.73;;;;;;;;;;5038590;28;20040;-73
2022/11/27 03:13:57;;;;;;;27.77;12.07;;;;;;;;;;5022176;28;20040;-73
2022/11/27 03:16:22;;;;;;;26.77;11.90;;;;;;;;;;5022118;28;20162;-73
2022/11/27 03:18:51;;;;;;;27.10;11.63;;;;;;;;;;5038438;28;20040;-73
2022/11/27 03:21:23;;;;;;;27.60;12.47;;;;;;;;;;5038285;28;20076;-73
2022/11/27 03:23:48;;;;;;;22.03;10.47;;;;;;;;;;5053770;28;20041;-73
2022/11/27 03:26:14;;;;;;;20.83;10.27;;;;;;;;;;5054664;28;20039;-74
2022/11/27 03:28:42;;;;;;;25.90;11.87;;;;;;;;;;5054782;28;20050;-74
2022/11/27 03:31:07;;;;;;;21.10;10.87;;;;;;;;;;5021443;28;20035;-74
2022/11/27 03:33:33;;;;;;;28.57;12.57;;;;;;;;;;5021726;28;20040;-74
2022/11/27 03:35:58;;;;;;;26.13;12.07;;;;;;;;;;5021318;28;20059;-74
2022/11/27 03:38:24;;;;;;;24.70;10.70;;;;;;;;;;5021186;28;20048;-74
2022/11/27 03:41:04;;;;;;;18.30;10.10;;;;;;;;;;5037523;28;20486;-74
2022/11/27 03:43:31;;;;;;;20.03;9.53;;;;;;;;;;5054498;28;20052;-74
2022/11/27 03:45:58;;;;;;;18.33;9.07;;;;;;;;;;5054343;28;20028;-73
2022/11/27 03:48:48;;;;;;;17.27;8.70;;;;;;;;;;5038009;28;20045;-74
2022/11/27 03:51:29;;;;;;;16.03;7.87;;;;;;;;;;5054057;28;20106;-74
2022/11/27 03:54:17;;;;;;;14.48;7.70;;;;;;;;;;5021122;28;20068;-74
2022/11/27 03:56:46;;;;;;;14.83;7.73;;;;;;;;;;5015639;28;20090;-73
2022/11/27 03:59:14;;;;;;;18.03;8.20;;;;;;;;;;5020771;28;20049;-74
2022/11/27 04:01:39;;;;;;;17.00;9.17;;;;;;;;;;5036915;28;20024;-73
2022/11/27 04:04:05;;;;;;;16.40;8.00;;;;;;;;;;5037831;28;20486;-73
2022/11/27 04:06:31;;;;;;;16.53;8.00;;;;;;;;;;5053912;28;20210;-75
2022/11/27 04:08:56;;;;;;;16.80;8.47;;;;;;;;;;5037552;28;20446;-75
2022/11/27 04:11:22;;;;;;;12.87;7.23;;;;;;;;;;5053480;28;20372;-72
2022/11/27 04:13:48;;;;;;;13.50;7.53;;;;;;;;;;5053806;28;20064;-72
2022/11/27 04:16:13;;;;;;;13.90;6.80;;;;;;;;;;5020672;28;20471;-72
2022/11/27 04:18:39;;;;;;;14.60;7.43;;;;;;;;;;5020459;28;20029;-72
2022/11/27 04:21:04;;;;;;;12.93;7.60;;;;;;;;;;5020351;28;20393;-71
2022/11/27 04:23:30;;;;;;;12.13;7.40;;;;;;;;;;5036586;28;20467;-72
2022/11/27 04:25:56;;;;;;;15.53;7.40;;;;;;;;;;5019895;28;20097;-72
2022/11/27 04:28:21;;;;;;;13.00;6.73;;;;;;;;;;5028396;28;20078;-72
2022/11/27 04:30:51;;;;;;;12.83;7.47;;;;;;;;;;5052684;28;20069;-72
2022/11/27 04:33:17;;;;;;;14.20;7.20;;;;;;;;;;5028243;28;20055;-71
2022/11/27 04:35:42;;;;;;;16.47;8.17;;;;;;;;;;5052792;28;20502;-72
2022/11/27 04:38:08;;;;;;;12.97;7.23;;;;;;;;;;5054292;28;20029;-73
2022/11/27 04:40:34;;;;;;;12.43;7.13;;;;;;;;;;5018037;28;20551;-73
2022/11/27 04:42:59;;;;;;;16.63;7.97;;;;;;;;;;5015923;28;20146;-73
2022/11/27 04:45:25;;;;;;;14.37;7.43;;;;;;;;;;5032962;28;20029;-73
2022/11/27 04:47:50;;;;;;;17.60;7.57;;;;;;;;;;5000325;28;20081;-73
2022/11/27 04:50:16;;;;;;;14.27;7.83;;;;;;;;;;5000115;28;20033;-72
2022/11/27 04:52:42;;;;;;;12.20;7.57;;;;;;;;;;4999619;28;20099;-73
2022/11/27 04:55:07;;;;;;;14.97;8.00;;;;;;;;;;5016090;28;20039;-71
2022/11/27 04:57:33;;;;;;;17.27;7.90;;;;;;;;;;5036534;28;20034;-70
2022/11/27 04:59:59;;;;;;;15.17;8.30;;;;;;;;;;5036966;28;20398;-70
2022/11/27 05:02:24;;;;;;;15.37;7.63;;;;;;;;;;5070557;28;20391;-69
2022/11/27 05:04:50;;;;;;;17.60;7.97;;;;;;;;;;5024883;28;20082;-69
2022/11/27 05:07:15;;;;;;;17.57;8.23;;;;;;;;;;5020847;28;20054;-69
2022/11/27 05:09:41;;;;;;;20.97;9.00;;;;;;;;;;5020647;28;20036;-70
2022/11/27 05:12:06;;;;;;;20.07;9.50;;;;;;;;;;5037248;28;20381;-70
2022/11/27 05:14:32;;;;;;;15.50;8.60;;;;;;;;;;5019704;28;20028;-70
2022/11/27 05:16:58;;;;;;;17.33;8.73;;;;;;;;;;5053391;28;20039;-70
2022/11/27 05:19:25;;;;;;;17.63;8.20;;;;;;;;;;5037075;28;20394;-69
2022/11/27 05:21:53;;;;;;;18.30;8.67;;;;;;;;;;5020879;28;20072;-70
2022/11/27 05:24:20;;;;;;;22.40;9.90;;;;;;;;;;5019605;28;20033;-70
2022/11/27 05:26:45;;;;;;;17.20;10.07;;;;;;;;;;5020300;28;20131;-71
2022/11/27 05:29:12;;;;;;;20.67;10.00;;;;;;;;;;5037090;28;20119;-71
2022/11/27 05:31:37;;;;;;;21.53;10.47;;;;;;;;;;5020760;28;20059;-72
2022/11/27 05:34:03;;;;;;;29.07;11.37;;;;;;;;;;5034372;28;20700;-71
2022/11/27 05:36:29;;;;;;;20.27;11.03;;;;;;;;;;5046284;28;20037;-70
2022/11/27 05:38:55;;;;;;;21.33;10.87;;;;;;;;;;5035074;28;20024;-70
2022/11/27 05:41:20;;;;;;;30.23;12.43;;;;;;;;;;5018183;28;20475;-70
2022/11/27 05:43:46;;;;;;;30.40;11.33;;;;;;;;;;5036343;28;20527;-68
2022/11/27 05:46:13;;;;;;;26.77;11.47;;;;;;;;;;5020332;28;20108;-69
2022/11/27 05:48:38;;;;;;;27.30;12.67;;;;;;;;;;5073936;28;20162;-70
2022/11/27 05:51:04;;;;;;;30.73;13.70;;;;;;;;;;5023864;28;20485;-70
2022/11/27 05:53:30;;;;;;;29.47;13.37;;;;;;;;;;5056281;28;20489;-69
2022/11/27 05:56:21;;;;;;;34.33;12.67;;;;;;;;;;5073904;28;20044;-69
2022/11/27 05:58:47;;;;;;;35.33;12.87;;;;;;;;;;5019745;28;20605;-69
2022/11/27 06:01:14;;;;;;;29.73;12.00;;;;;;;;;;5056539;28;20135;-70
2022/11/27 06:03:40;;;;;;;29.40;12.87;;;;;;;;;;5057139;28;20032;-75
2022/11/27 06:06:10;;;;;;;33.57;13.00;;;;;;;;;;5023268;28;20122;-72
2022/11/27 06:08:39;;;;;;;33.80;13.63;;;;;;;;;;5074086;28;20044;-67
2022/11/27 06:11:09;;;;;;;36.33;13.97;;;;;;;;;;5040198;28;20040;-68
2022/11/27 06:13:35;;;;;;;33.40;13.50;;;;;;;;;;5023320;28;20055;-70
2022/11/27 06:16:08;;;;;;;34.90;13.17;;;;;;;;;;5023100;28;20040;-67
2022/11/27 06:18:34;;;;;;;34.90;14.77;;;;;;;;;;5039903;28;20083;-66
2022/11/27 06:20:59;;;;;;;38.07;15.10;;;;;;;;;;5022477;28;20068;-69
2022/11/27 06:23:25;;;;;;;34.27;14.07;;;;;;;;;;5022672;28;20032;-65
2022/11/27 06:25:50;;;;;;;39.97;16.53;;;;;;;;;;5038987;28;20036;-67
2022/11/27 06:28:16;;;;;;;37.47;15.80;;;;;;;;;;5038964;28;20094;-66
2022/11/27 06:30:41;;;;;;;38.70;15.13;;;;;;;;;;5055669;28;20040;-70
2022/11/27 06:33:07;;;;;;;32.00;14.53;;;;;;;;;;5022528;28;20037;-65
2022/11/27 06:35:32;;;;;;;38.77;14.33;;;;;;;;;;5040235;28;20039;-65
2022/11/27 06:37:58;;;;;;;31.90;13.93;;;;;;;;;;5022227;28;20463;-65
2022/11/27 06:40:23;;;;;;;40.90;15.47;;;;;;;;;;5055764;28;20056;-65
2022/11/27 06:42:49;;;;;;;31.77;14.60;;;;;;;;;;5055685;28;20132;-65
2022/11/27 06:45:15;;;;;;;34.70;14.73;;;;;;;;;;5055457;28;20040;-65
2022/11/27 06:47:40;;;;;;;33.97;14.30;;;;;;;;;;5054886;28;20032;-64
2022/11/27 06:50:06;;;;;;;36.33;14.83;;;;;;;;;;5055226;28;20036;-64
2022/11/27 06:52:31;;;;;;;39.00;15.10;;;;;;;;;;5055565;28;20040;-65
2022/11/27 06:54:57;;;;;;;39.63;14.53;;;;;;;;;;5038103;28;20113;-66
2022/11/27 06:57:22;;;;;;;35.87;15.93;;;;;;;;;;5054478;28;20127;-65
2022/11/27 06:59:48;;;;;;;35.63;15.00;;;;;;;;;;5038278;28;20475;-65
2022/11/27 07:02:14;;;;;;;41.40;16.03;;;;;;;;;;5039129;28;20471;-64
2022/11/27 07:04:39;;;;;;;37.90;15.23;;;;;;;;;;5055043;28;20079;-72
2022/11/27 07:07:05;;;;;;;27.70;13.03;;;;;;;;;;5022152;28;20070;-68
2022/11/27 07:09:31;;;;;;;32.73;13.97;;;;;;;;;;5022418;28;20459;-64
2022/11/27 07:11:56;;;;;;;31.63;14.10;;;;;;;;;;5055572;28;20077;-65
2022/11/27 07:14:22;;;;;;;48.23;13.47;;;;;;;;;;5055085;28;20044;-66
2022/11/27 07:16:47;;;;;;;25.60;12.73;;;;;;;;;;5055501;28;20600;-63
2022/11/27 07:19:13;;;;;;;37.93;14.97;;;;;;;;;;5072586;28;20433;-65
2022/11/27 07:21:39;;;;;;;35.80;16.90;;;;;;;;;;5038810;28;20043;-66
2022/11/27 07:24:05;;;;;;;36.27;15.53;;;;;;;;;;5019081;28;20780;-65
2022/11/27 07:26:31;;;;;;;36.47;14.53;;;;;;;;;;5051251;28;20044;-65
2022/11/27 07:28:57;;;;;;;50.37;15.83;;;;;;;;;;5034883;28;20111;-66
2022/11/27 07:31:25;;;;;;;28.47;14.53;;;;;;;;;;5051631;28;20036;-67
2022/11/27 07:33:51;;;;;;;32.57;14.43;;;;;;;;;;5034635;28;20524;-67
2022/11/27 07:36:21;;;;;;;37.40;16.13;;;;;;;;;;5034894;28;20071;-68
2022/11/27 07:38:47;;;;;;;32.15;14.63;;;;;;;;;;5034163;28;20041;-69
2022/11/27 07:41:13;;;;;;;33.00;13.57;;;;;;;;;;5018263;28;20491;-68
2022/11/27 07:43:38;;;;;;;35.27;14.37;;;;;;;;;;5018279;28;20037;-69
2022/11/27 07:46:24;;;;;;;42.17;15.57;;;;;;;;;;5028177;28;20051;-69
2022/11/27 07:48:50;;;;;;;38.10;16.67;;;;;;;;;;5052766;28;20051;-68
2022/11/27 07:51:17;;;;;;;37.17;16.40;;;;;;;;;;5054699;28;20040;-69
2022/11/27 07:53:42;;;;;;;42.80;16.10;;;;;;;;;;5054311;28;20096;-67
2022/11/27 07:56:09;;;;;;;30.87;13.90;;;;;;;;;;5072419;28;20060;-70
2022/11/27 07:58:35;;;;;;;30.27;13.00;;;;;;;;;;5021543;28;20038;-70
2022/11/27 08:01:04;;;;;;;32.77;13.10;;;;;;;;;;5050507;28;20163;-71
2022/11/27 08:03:30;;;;;;;29.77;12.70;;;;;;;;;;5050293;28;20123;-69
2022/11/27 08:05:55;;;;;;;36.50;13.83;;;;;;;;;;5034290;28;20132;-68
2022/11/27 08:08:21;;;;;;;30.40;14.00;;;;;;;;;;5034257;28;20446;-69
2022/11/27 08:10:46;;;;;;;35.93;15.10;;;;;;;;;;5033764;28;20458;-69
2022/11/27 08:13:12;;;;;;;29.40;14.20;;;;;;;;;;5050648;28;20475;-67
2022/11/27 08:15:38;;;;;;;31.13;14.10;;;;;;;;;;5032046;28;20471;-67
2022/11/27 08:18:03;;;;;;;30.50;12.93;;;;;;;;;;5031526;28;20064;-67
2022/11/27 08:20:29;;;;;;;20.47;10.13;;;;;;;;;;5032969;28;20040;-66
2022/11/27 08:22:54;;;;;;;19.73;10.10;;;;;;;;;;5050336;28;20371;-68
2022/11/27 08:25:20;;;;;;;17.40;9.07;;;;;;;;;;5051000;28;20480;-70
2022/11/27 08:27:47;;;;;;;21.77;8.73;;;;;;;;;;5017734;28;20033;-70
2022/11/27 08:30:13;;;;;;;17.43;8.50;;;;;;;;;;5050824;28;20131;-68
2022/11/27 08:32:39;;;;;;;20.67;9.20;;;;;;;;;;5052221;28;20136;-69
2022/11/27 08:35:05;;;;;;;24.23;11.57;;;;;;;;;;5050099;28;20037;-68
2022/11/27 08:37:31;;;;;;;24.83;11.03;;;;;;;;;;5045909;28;20040;-69
2022/11/27 08:39:56;;;;;;;18.73;9.77;;;;;;;;;;5029199;28;20041;-68
2022/11/27 08:42:22;;;;;;;18.93;9.03;;;;;;;;;;5029014;28;20033;-69
2022/11/27 08:44:48;;;;;;;16.63;8.50;;;;;;;;;;5012480;28;20167;-68
2022/11/27 08:47:15;;;;;;;19.37;8.67;;;;;;;;;;4996041;28;20038;-68
2022/11/27 08:49:42;;;;;;;23.17;9.87;;;;;;;;;;5028794;28;20044;-68
2022/11/27 08:52:08;;;;;;;18.80;9.20;;;;;;;;;;5030513;28;20036;-72
2022/11/27 08:54:33;;;;;;;20.03;8.83;;;;;;;;;;5030894;28;20041;-71
2022/11/27 08:56:59;;;;;;;19.93;8.77;;;;;;;;;;4997687;28;20348;-70
2022/11/27 08:59:24;;;;;;;20.10;9.37;;;;;;;;;;4994112;28;20052;-70
2022/11/27 09:01:50;;;;;;;16.03;9.13;;;;;;;;;;5011024;28;20041;-69
2022/11/27 09:04:15;;;;;;;16.47;8.93;;;;;;;;;;4978372;28;20045;-70
2022/11/27 09:06:42;;;;;;;20.23;9.70;;;;;;;;;;5003482;28;20044;-70
2022/11/27 09:09:08;;;;;;;18.13;9.63;;;;;;;;;;4998241;28;20124;-70
2022/11/27 09:11:34;;;;;;;16.47;9.03;;;;;;;;;;4993944;28;20219;-74
2022/11/27 09:14:01;;;;;;;18.33;8.87;;;;;;;;;;5007889;28;20053;-72
2022/11/27 09:16:28;;;;;;;14.83;8.20;;;;;;;;;;4997172;28;20065;-71
2022/11/27 09:18:54;;;;;;;17.50;8.83;;;;;;;;;;5012871;28;20041;-70
2022/11/27 09:21:21;;;;;;;13.73;7.83;;;;;;;;;;5013327;28;20371;-71
2022/11/27 09:23:46;;;;;;;13.67;7.83;;;;;;;;;;5016272;28;20128;-70
2022/11/27 09:26:13;;;;;;;14.13;7.63;;;;;;;;;;4999821;28;20127;-71
2022/11/27 09:28:39;;;;;;;15.00;8.00;;;;;;;;;;5016801;28;20038;-70
2022/11/27 09:31:06;;;;;;;18.63;8.33;;;;;;;;;;5028861;28;20033;-70
2022/11/27 09:33:32;;;;;;;14.20;7.60;;;;;;;;;;5025494;28;20103;-71
2022/11/27 09:36:01;;;;;;;12.70;7.17;;;;;;;;;;5015390;28;20033;-69
2022/11/27 09:38:27;;;;;;;15.13;7.63;;;;;;;;;;5016615;28;20041;-70
2022/11/27 09:40:57;;;;;;;12.83;6.87;;;;;;;;;;5031934;28;20359;-69
2022/11/27 09:43:32;;;;;;;16.77;8.82;;;;;;;;;;5006330;28;20033;-69
2022/11/27 09:46:02;;;;;;;10.70;6.33;;;;;;;;;;4998728;28;20391;-70
2022/11/27 09:48:33;;;;;;;13.40;7.03;;;;;;;;;;4995757;28;20116;-69
2022/11/27 09:50:59;;;;;;;16.27;7.13;;;;;;;;;;5027017;28;20032;-69
2022/11/27 09:53:42;;;;;;;14.37;6.67;;;;;;;;;;5027477;28;20037;-69
2022/11/27 09:56:10;;;;;;;18.70;7.27;;;;;;;;;;5009464;28;20041;-70
2022/11/27 09:58:39;;;;;;;11.80;6.70;;;;;;;;;;5030483;28;20079;-70
2022/11/27 10:01:12;;;;;;;13.23;6.07;;;;;;;;;;5009587;28;20053;-70
2022/11/27 10:03:42;;;;;;;11.43;6.87;;;;;;;;;;5003259;28;20033;-73
2022/11/27 10:06:22;;;;;;;15.30;7.33;;;;;;;;;;5032437;28;20045;-69
2022/11/27 10:09:06;;;;;;;8.00;6.05;;;;;;;;;;5032508;28;20041;-73
2022/11/27 10:11:41;;;;;;;11.20;5.77;;;;;;;;;;4994491;28;20037;-70
2022/11/27 10:14:30;;;;;;;11.03;6.33;;;;;;;;;;5013877;28;20396;-70
2022/11/27 10:16:55;;;;;;;11.57;6.60;;;;;;;;;;5015932;28;20045;-69
2022/11/27 10:19:21;;;;;;;13.37;6.70;;;;;;;;;;5000129;28;20029;-70
2022/11/27 10:21:59;;;;;;;11.27;6.87;;;;;;;;;;5000179;28;20033;-69
2022/11/27 10:24:27;;;;;;;11.87;6.57;;;;;;;;;;5022623;28;20053;-70
2022/11/27 10:26:55;;;;;;;15.70;7.50;;;;;;;;;;4997663;28;20129;-70
2022/11/27 10:29:33;;;;;;;12.27;7.03;;;;;;;;;;4993310;28;20096;-73
2022/11/27 10:32:18;;;;;;;16.30;7.80;;;;;;;;;;5029220;28;20106;-69
2022/11/27 10:34:47;;;;;;;12.73;6.90;;;;;;;;;;4997339;28;20112;-69
2022/11/27 10:37:15;;;;;;;13.70;7.60;;;;;;;;;;5024345;28;20044;-71
2022/11/27 10:39:43;;;;;;;12.47;6.97;;;;;;;;;;4994846;28;20358;-71
2022/11/27 10:42:12;;;;;;;11.80;6.60;;;;;;;;;;5000036;28;20040;-72
2022/11/27 10:44:39;;;;;;;12.57;6.90;;;;;;;;;;4998198;28;20030;-72
2022/11/27 10:47:06;;;;;;;10.20;7.00;;;;;;;;;;5014224;28;20049;-72
2022/11/27 10:49:34;;;;;;;11.90;6.63;;;;;;;;;;5030610;28;20068;-71
2022/11/27 10:52:00;;;;;;;11.60;6.60;;;;;;;;;;4996472;28;20025;-71
2022/11/27 10:54:27;;;;;;;14.23;7.03;;;;;;;;;;4997792;28;20557;-72
2022/11/27 10:56:55;;;;;;;11.13;6.97;;;;;;;;;;5031760;28;20091;-71
2022/11/27 10:59:27;;;;;;;12.30;6.50;;;;;;;;;;4999173;28;20044;-70
2022/11/27 11:01:52;;;;;;;11.53;6.43;;;;;;;;;;5033106;28;20127;-72
2022/11/27 11:04:21;;;;;;;12.80;7.20;;;;;;;;;;5028646;28;20084;-71
2022/11/27 11:06:50;;;;;;;14.17;8.17;;;;;;;;;;5018488;28;20033;-71
2022/11/27 11:09:17;;;;;;;14.83;7.83;;;;;;;;;;5053327;28;20040;-71
2022/11/27 11:11:43;;;;;;;13.27;7.43;;;;;;;;;;5053245;28;20508;-72
2022/11/27 11:14:17;;;;;;;11.53;7.20;;;;;;;;;;5052214;28;20738;-70
2022/11/27 11:16:43;;;;;;;12.83;7.00;;;;;;;;;;5012270;28;20024;-69
2022/11/27 11:19:24;;;;;;;13.27;7.43;;;;;;;;;;5044549;28;20090;-70
2022/11/27 11:21:50;;;;;;;9.95;6.90;;;;;;;;;;5043735;28;20040;-71
2022/11/27 11:24:24;;;;;;;16.67;7.17;;;;;;;;;;5046025;28;20029;-70
2022/11/27 11:26:59;;;;;;;15.33;7.23;;;;;;;;;;5050732;28;20091;-69
2022/11/27 11:29:31;;;;;;;14.17;7.03;;;;;;;;;;5052711;28;20151;-70
2022/11/27 11:32:01;;;;;;;10.90;6.93;;;;;;;;;;5053378;28;20055;-70
2022/11/27 11:34:28;;;;;;;13.03;7.63;;;;;;;;;;5048868;28;20542;-70
2022/11/27 11:37:00;;;;;;;16.07;7.20;;;;;;;;;;5011082;28;20483;-70
2022/11/27 11:39:27;;;;;;;11.67;7.13;;;;;;;;;;5043420;28;20048;-71
2022/11/27 11:41:53;;;;;;;18.13;8.43;;;;;;;;;;5019684;28;20064;-69
2022/11/27 11:44:30;;;;;;;13.37;7.00;;;;;;;;;;5019688;28;20048;-69
2022/11/27 11:46:56;;;;;;;16.00;7.63;;;;;;;;;;5020732;28;20024;-68
2022/11/27 11:49:25;;;;;;;13.67;7.50;;;;;;;;;;5019900;28;20086;-69
2022/11/27 11:52:00;;;;;;;12.53;7.77;;;;;;;;;;5070023;28;20036;-69
2022/11/27 11:54:34;;;;;;;16.40;7.83;;;;;;;;;;5035506;28;20473;-69
2022/11/27 11:57:02;;;;;;;13.93;7.77;;;;;;;;;;5005382;28;20051;-71
2022/11/27 11:59:27;;;;;;;13.10;6.80;;;;;;;;;;5047773;28;20124;-71
2022/11/27 12:02:13;;;;;;;11.20;6.90;;;;;;;;;;5018663;28;20166;-71
2022/11/27 12:04:50;;;;;;;12.53;6.93;;;;;;;;;;5024825;28;20051;-70
2022/11/27 12:07:16;;;;;;;14.40;6.83;;;;;;;;;;5049190;28;20025;-76
2022/11/27 12:09:48;;;;;;;12.03;7.10;;;;;;;;;;5018875;28;20032;-69
2022/11/27 12:12:21;;;;;;;14.97;7.03;;;;;;;;;;5020281;28;20036;-69
2022/11/27 12:14:56;;;;;;;13.43;7.30;;;;;;;;;;5036621;28;20056;-69
2022/11/27 12:17:22;;;;;;;14.77;6.80;;;;;;;;;;5037669;28;20040;-69
2022/11/27 12:19:47;;;;;;;14.57;7.67;;;;;;;;;;5032644;28;20047;-70
2022/11/27 12:22:19;;;;;;;14.80;7.67;;;;;;;;;;5030109;28;20032;-69
2022/11/27 12:24:51;;;;;;;15.67;8.67;;;;;;;;;;5021308;28;20548;-69
2022/11/27 12:27:17;;;;;;;12.70;8.13;;;;;;;;;;5034154;28;20049;-69
2022/11/27 12:30:12;;;;;;;17.10;7.70;;;;;;;;;;5016315;28;20037;-69
2022/11/27 12:32:43;;;;;;;15.67;7.77;;;;;;;;;;4981909;28;20045;-70
2022/11/27 12:35:42;;;;;;;15.63;7.50;;;;;;;;;;4999220;28;20040;-70
2022/11/27 12:38:07;;;;;;;13.07;7.87;;;;;;;;;;5009656;28;20127;-70
2022/11/27 12:40:42;;;;;;;14.03;7.40;;;;;;;;;;5016209;28;20131;-70
2022/11/27 12:43:24;;;;;;;20.30;8.87;;;;;;;;;;5069050;28;20068;-69
2022/11/27 12:45:56;;;;;;;12.83;7.53;;;;;;;;;;5069940;28;20048;-70
2022/11/27 12:48:38;;;;;;;15.80;8.23;;;;;;;;;;5020031;28;20170;-73
2022/11/27 12:51:24;;;;;;;20.57;8.83;;;;;;;;;;5050235;28;20044;-71
2022/11/27 12:53:50;;;;;;;18.33;9.13;;;;;;;;;;5017461;28;20592;-69
2022/11/27 12:56:25;;;;;;;18.27;8.63;;;;;;;;;;5050758;28;20062;-70
2022/11/27 12:58:57;;;;;;;19.33;9.47;;;;;;;;;;5027374;28;20032;-68
2022/11/27 13:01:29;;;;;;;17.30;10.37;;;;;;;;;;5034448;28;20059;-69
2022/11/27 13:03:54;;;;;;;20.97;9.20;;;;;;;;;;5014008;28;20036;-69
2022/11/27 13:06:22;;;;;;;23.27;10.80;;;;;;;;;;5043725;28;20437;-70
2022/11/27 13:08:53;;;;;;;20.30;10.67;;;;;;;;;;5035524;28;20124;-70
2022/11/27 13:11:22;;;;;;;23.98;12.02;;;;;;;;;;5018919;28;20028;-69
2022/11/27 13:13:52;;;;;;;20.10;10.57;;;;;;;;;;5051180;28;20097;-69
2022/11/27 13:16:21;;;;;;;21.27;11.35;;;;;;;;;;5015781;28;20470;-70
2022/11/27 13:19:13;;;;;;;19.00;9.83;;;;;;;;;;5019893;28;20127;-70
2022/11/27 13:21:39;;;;;;;18.53;10.20;;;;;;;;;;5013793;28;20045;-70
2022/11/27 13:24:05;;;;;;;25.20;11.13;;;;;;;;;;5049518;28;20044;-70
2022/11/27 13:26:33;;;;;;;19.10;11.10;;;;;;;;;;5018292;28;20127;-71
2022/11/27 13:29:00;;;;;;;21.27;10.73;;;;;;;;;;5017963;28;20094;-71
2022/11/27 13:31:28;;;;;;;21.67;10.77;;;;;;;;;;5018304;28;20123;-71
2022/11/27 13:34:02;;;;;;;21.30;10.20;;;;;;;;;;5034696;28;20347;-71
2022/11/27 13:36:33;;;;;;;20.43;10.67;;;;;;;;;;5048631;28;20032;-70
2022/11/27 13:39:00;;;;;;;25.13;10.40;;;;;;;;;;5034358;28;20032;-70
2022/11/27 13:41:45;;;;;;;21.73;9.73;;;;;;;;;;5016853;28;20040;-70
2022/11/27 13:44:27;;;;;;;18.60;9.73;;;;;;;;;;5016961;28;20344;-71
2022/11/27 13:46:54;;;;;;;19.27;9.80;;;;;;;;;;5050534;28;20021;-70
2022/11/27 13:49:28;;;;;;;18.37;10.43;;;;;;;;;;5034128;28;20024;-70
2022/11/27 13:52:04;;;;;;;19.43;10.20;;;;;;;;;;5048436;28;20569;-70
2022/11/27 13:54:29;;;;;;;21.87;11.40;;;;;;;;;;5034249;28;20056;-70
2022/11/27 13:56:55;;;;;;;22.07;11.67;;;;;;;;;;5033408;28;20478;-70
2022/11/27 13:59:24;;;;;;;20.87;10.27;;;;;;;;;;5017047;28;20105;-71
2022/11/27 14:01:57;;;;;;;20.40;11.07;;;;;;;;;;5030653;28;20056;-71
2022/11/27 14:04:23;;;;;;;21.03;11.67;;;;;;;;;;5034605;28;20064;-70
2022/11/27 14:06:58;;;;;;;20.53;11.53;;;;;;;;;;5017383;28;20067;-70
2022/11/27 14:09:50;;;;;;;20.50;10.03;;;;;;;;;;5019544;28;20106;-72
2022/11/27 14:12:19;;;;;;;18.83;10.20;;;;;;;;;;5000736;28;20483;-70
2022/11/27 14:14:55;;;;;;;17.53;9.73;;;;;;;;;;5033399;28;20143;-71
2022/11/27 14:17:23;;;;;;;21.73;11.00;;;;;;;;;;5056024;28;20386;-70
2022/11/27 14:19:57;;;;;;;24.60;11.03;;;;;;;;;;5039049;28;20036;-70
2022/11/27 14:22:34;;;;;;;21.20;10.17;;;;;;;;;;5067642;28;20028;-70
2022/11/27 14:25:00;;;;;;;19.53;10.37;;;;;;;;;;5037107;28;20044;-70
2022/11/27 14:27:27;;;;;;;19.20;10.40;;;;;;;;;;5052164;28;20602;-70
2022/11/27 14:29:52;;;;;;;20.67;10.10;;;;;;;;;;5050311;28;20126;-70
2022/11/27 14:32:19;;;;;;;20.07;10.00;;;;;;;;;;5021377;28;20546;-71
2022/11/27 14:34:46;;;;;;;18.70;10.23;;;;;;;;;;5071287;28;20110;-71